createdAt,value
2023-06-04T00:00:47.839Z,57.96
2023-06-04T00:01:49.698Z,58.32
2023-06-04T00:02:52.170Z,58.04
2023-06-04T00:03:54.588Z,57.77
2023-06-04T00:04:56.422Z,57.55
2023-06-04T00:05:58.382Z,57.95
2023-06-04T00:07:00.072Z,57.67
2023-06-04T00:08:01.809Z,58.23
2023-06-04T00:09:03.719Z,57.77
2023-06-04T00:10:06.092Z,57.47
2023-06-04T00:11:08.125Z,57.32
2023-06-04T00:12:10.147Z,57.18
2023-06-04T00:13:12.035Z,57.17
2023-06-04T00:14:16.553Z,57.01
2023-06-04T00:15:18.333Z,56.57
2023-06-04T00:16:20.221Z,56.51
2023-06-04T00:17:22.006Z,56.32
2023-06-04T00:18:23.831Z,56.38
2023-06-04T00:19:25.798Z,56.38
2023-06-04T00:20:27.894Z,56.60
2023-06-04T00:21:30.028Z,56.48
2023-06-04T00:22:31.942Z,56.67
2023-06-04T00:23:33.800Z,57.18
2023-06-04T00:24:36.620Z,57.11
2023-06-04T00:25:38.457Z,56.81
2023-06-04T00:26:40.392Z,56.89
2023-06-04T00:27:42.226Z,56.85
2023-06-04T00:28:44.061Z,57.46
2023-06-04T00:29:45.928Z,57.33
2023-06-04T00:30:47.614Z,58.07
2023-06-04T00:31:49.378Z,57.57
2023-06-04T00:32:51.220Z,57.63
2023-06-04T00:33:53.155Z,57.79
2023-06-04T00:34:56.414Z,58.64
2023-06-04T00:35:58.209Z,58.65
2023-06-04T00:37:03.029Z,58.13
2023-06-04T00:38:04.766Z,59.77
2023-06-04T00:39:06.929Z,58.83
2023-06-04T00:40:09.008Z,58.66
2023-06-04T00:41:10.864Z,58.92
2023-06-04T00:42:12.712Z,58.74
2023-06-04T00:43:14.905Z,58.97
2023-06-04T00:44:16.687Z,58.65
2023-06-04T00:45:21.563Z,58.91
2023-06-04T00:46:28.230Z,59.19
2023-06-04T00:47:30.089Z,58.84
2023-06-04T00:48:31.934Z,58.78
2023-06-04T00:49:33.678Z,59.45
2023-06-04T00:50:37.080Z,60.04
2023-06-04T00:51:39.258Z,60.00
2023-06-04T00:52:41.507Z,59.71
2023-06-04T00:53:43.759Z,61.16
2023-06-04T00:54:45.834Z,60.36
2023-06-04T00:55:47.645Z,59.55
2023-06-04T00:56:49.588Z,59.14
2023-06-04T00:57:51.750Z,59.51
2023-06-04T00:58:55.126Z,59.44
2023-06-04T00:59:57.046Z,59.47
2023-06-04T01:01:01.098Z,58.98
2023-06-04T01:02:17.497Z,59.05
2023-06-04T01:03:20.834Z,58.94
2023-06-04T01:04:27.073Z,58.88
2023-06-04T01:05:36.133Z,58.69
2023-06-04T01:06:44.190Z,58.40
2023-06-04T01:07:48.021Z,58.66
2023-06-04T01:08:51.634Z,59.20
2023-06-04T01:09:53.503Z,59.07
2023-06-04T01:10:56.946Z,60.06
2023-06-04T01:11:59.669Z,59.97
2023-06-04T01:13:01.489Z,61.74
2023-06-04T01:14:09.621Z,60.86
2023-06-04T01:15:12.681Z,60.36
2023-06-04T01:16:15.812Z,60.59
2023-06-04T01:17:42.884Z,60.86
2023-06-04T01:18:45.451Z,62.06
2023-06-04T01:19:49.398Z,63.09
2023-06-04T01:20:52.785Z,64.16
2023-06-04T01:21:56.634Z,64.68
2023-06-04T01:23:06.816Z,65.58
2023-06-04T01:24:09.596Z,63.66
2023-06-04T01:25:30.041Z,63.34
2023-06-04T01:26:32.806Z,63.25
2023-06-04T01:27:36.652Z,62.75
2023-06-04T01:28:38.926Z,62.69
2023-06-04T01:29:40.688Z,61.59
2023-06-04T01:30:44.514Z,61.44
2023-06-04T01:31:46.522Z,61.26
2023-06-04T01:32:48.499Z,61.37
2023-06-04T01:33:52.977Z,61.89
2023-06-04T01:34:55.548Z,61.38
2023-06-04T01:35:57.548Z,60.85
2023-06-04T01:36:59.456Z,60.90
2023-06-04T01:38:01.944Z,60.76
2023-06-04T01:39:04.522Z,61.12
2023-06-04T01:40:09.038Z,61.14
2023-06-04T01:41:11.190Z,62.08
2023-06-04T01:42:13.023Z,61.63
2023-06-04T01:43:15.050Z,63.10
2023-06-04T01:44:16.857Z,62.30
2023-06-04T01:45:18.626Z,63.60
2023-06-04T01:46:20.369Z,63.66
2023-06-04T01:47:22.178Z,63.11
2023-06-04T01:48:24.046Z,63.54
2023-06-04T01:49:26.113Z,63.47
2023-06-04T01:50:28.130Z,63.23
2023-06-04T01:51:29.968Z,62.68
2023-06-04T01:52:32.058Z,62.85
2023-06-04T01:53:33.768Z,63.48
2023-06-04T01:54:35.592Z,63.28
2023-06-04T01:55:39.181Z,62.56
2023-06-04T01:56:40.968Z,62.41
2023-06-04T01:57:43.689Z,62.06
2023-06-04T01:58:45.600Z,61.81
2023-06-04T01:59:47.921Z,61.81
2023-06-04T02:00:54.208Z,61.72
2023-06-04T02:01:56.003Z,61.68
2023-06-04T02:02:58.035Z,61.37
2023-06-04T02:04:00.185Z,61.07
2023-06-04T02:05:02.518Z,61.31
2023-06-04T02:06:06.089Z,61.14
2023-06-04T02:07:08.483Z,61.36
2023-06-04T02:08:10.365Z,61.48
2023-06-04T02:09:12.073Z,61.65
2023-06-04T02:10:15.182Z,61.60
2023-06-04T02:11:16.995Z,61.39
2023-06-04T02:12:19.368Z,61.47
2023-06-04T02:13:21.438Z,61.53
2023-06-04T02:14:23.295Z,61.12
2023-06-04T02:15:25.801Z,60.99
2023-06-04T02:16:27.678Z,61.33
2023-06-04T02:17:32.865Z,63.14
2023-06-04T02:18:35.306Z,62.57
2023-06-04T02:19:38.245Z,62.80
2023-06-04T02:20:40.044Z,63.36
2023-06-04T02:21:41.761Z,62.92
2023-06-04T02:22:44.455Z,62.83
2023-06-04T02:23:46.400Z,62.78
2023-06-04T02:24:49.132Z,62.39
2023-06-04T02:25:51.329Z,62.28
2023-06-04T02:26:53.303Z,62.07
2023-06-04T02:27:55.020Z,62.55
2023-06-04T02:28:56.799Z,62.39
2023-06-04T02:29:58.595Z,62.04
2023-06-04T02:31:00.709Z,62.98
2023-06-04T02:32:02.835Z,63.10
2023-06-04T02:33:05.346Z,63.21
2023-06-04T02:34:07.160Z,62.68
2023-06-04T02:35:09.458Z,64.37
2023-06-04T02:36:11.740Z,64.49
2023-06-04T02:37:13.516Z,65.13
2023-06-04T02:38:15.237Z,64.44
2023-06-04T02:39:16.976Z,64.49
2023-06-04T02:40:18.791Z,64.79
2023-06-04T02:41:21.294Z,65.05
2023-06-04T02:42:23.103Z,64.76
2023-06-04T02:43:24.972Z,64.78
2023-06-04T02:44:27.733Z,64.54
2023-06-04T02:45:30.219Z,64.08
2023-06-04T02:46:32.095Z,64.00
2023-06-04T02:47:34.286Z,65.07
2023-06-04T02:48:36.127Z,65.85
2023-06-04T02:49:37.886Z,66.84
2023-06-04T02:50:40.560Z,67.32
2023-06-04T02:51:42.584Z,66.48
2023-06-04T02:52:44.890Z,66.18
2023-06-04T02:53:47.450Z,66.20
2023-06-04T02:54:49.281Z,66.46
2023-06-04T02:55:54.264Z,65.99
2023-06-04T02:56:56.065Z,65.81
2023-06-04T02:57:57.949Z,65.34
2023-06-04T02:59:00.125Z,64.90
2023-06-04T03:00:02.590Z,64.88
2023-06-04T03:01:04.671Z,64.76
2023-06-04T03:02:06.751Z,64.83
2023-06-04T03:03:08.596Z,66.05
2023-06-04T03:04:11.555Z,65.37
2023-06-04T03:05:14.603Z,66.03
2023-06-04T03:06:16.870Z,65.92
2023-06-04T03:07:21.939Z,65.36
2023-06-04T03:08:23.868Z,65.14
2023-06-04T03:09:25.883Z,64.96
2023-06-04T03:10:27.613Z,66.71
2023-06-04T03:11:29.488Z,65.56
2023-06-04T03:12:31.336Z,66.86
2023-06-04T03:13:33.716Z,67.29
2023-06-04T03:14:35.511Z,68.27
2023-06-04T03:15:40.516Z,66.97
2023-06-04T03:16:42.417Z,66.00
2023-06-04T03:17:45.717Z,66.04
2023-06-04T03:18:47.640Z,65.64
2023-06-04T03:19:49.774Z,65.92
2023-06-04T03:20:51.446Z,65.53
2023-06-04T03:21:53.687Z,65.52
2023-06-04T03:22:55.810Z,65.32
2023-06-04T03:23:57.916Z,65.25
2023-06-04T03:24:59.722Z,66.41
2023-06-04T03:26:05.008Z,66.88
2023-06-04T03:27:07.332Z,67.58
2023-06-04T03:28:09.077Z,68.52
2023-06-04T03:29:10.749Z,68.86
2023-06-04T03:30:12.823Z,68.25
2023-06-04T03:31:14.596Z,68.44
2023-06-04T03:32:17.367Z,68.42
2023-06-04T03:33:22.508Z,68.63
2023-06-04T03:34:26.976Z,67.72
2023-06-04T03:35:28.776Z,67.57
2023-06-04T03:36:33.109Z,67.67
2023-06-04T03:37:34.879Z,67.82
2023-06-04T03:38:36.688Z,68.21
2023-06-04T03:39:38.527Z,68.71
2023-06-04T03:40:40.545Z,67.99
2023-06-04T03:41:42.864Z,67.39
2023-06-04T03:42:44.789Z,67.68
2023-06-04T03:43:46.631Z,67.43
2023-06-04T03:44:48.531Z,68.42
2023-06-04T03:45:50.203Z,68.04
2023-06-04T03:46:52.261Z,67.51
2023-06-04T03:47:54.164Z,67.96
2023-06-04T03:48:56.085Z,68.42
2023-06-04T03:49:58.144Z,67.65
2023-06-04T03:50:59.939Z,67.34
2023-06-04T03:52:01.926Z,66.62
2023-06-04T03:53:06.315Z,67.72
2023-06-04T03:54:08.178Z,68.00
2023-06-04T03:55:10.010Z,66.93
2023-06-04T03:56:12.377Z,66.97
2023-06-04T03:57:14.242Z,66.87
2023-06-04T03:58:16.323Z,67.10
2023-06-04T03:59:18.184Z,66.92
2023-06-04T04:00:20.444Z,66.61
2023-06-04T04:01:24.756Z,66.89
2023-06-04T04:02:27.332Z,66.54
2023-06-04T04:03:32.435Z,67.13
2023-06-04T04:04:34.539Z,67.05
2023-06-04T04:05:37.090Z,67.07
2023-06-04T04:06:39.103Z,67.59
2023-06-04T04:07:40.976Z,68.40
2023-06-04T04:08:45.631Z,67.70
2023-06-04T04:09:47.402Z,66.95
2023-06-04T04:10:49.154Z,68.20
2023-06-04T04:11:50.937Z,68.37
2023-06-04T04:12:54.943Z,68.63
2023-06-04T04:13:57.971Z,68.18
2023-06-04T04:15:00.327Z,68.01
2023-06-04T04:16:02.346Z,68.44
2023-06-04T04:17:04.321Z,68.76
2023-06-04T04:18:06.174Z,67.69
2023-06-04T04:19:09.189Z,67.81
2023-06-04T04:20:11.283Z,67.59
2023-06-04T04:21:13.030Z,67.20
2023-06-04T04:22:18.699Z,68.01
2023-06-04T04:23:21.316Z,67.28
2023-06-04T04:24:27.370Z,67.48
2023-06-04T04:25:29.213Z,67.23
2023-06-04T04:26:31.103Z,67.40
2023-06-04T04:27:35.338Z,67.75
2023-06-04T04:28:37.117Z,67.30
2023-06-04T04:29:39.122Z,67.10
2023-06-04T04:30:42.004Z,67.10
2023-06-04T04:31:43.872Z,67.09
2023-06-04T04:32:50.468Z,68.47
2023-06-04T04:33:53.542Z,68.40
2023-06-04T04:34:56.399Z,67.56
2023-06-04T04:36:00.490Z,67.11
2023-06-04T04:37:04.031Z,67.03
2023-06-04T04:38:05.803Z,67.15
2023-06-04T04:39:08.443Z,67.04
2023-06-04T04:40:11.261Z,66.88
2023-06-04T04:41:13.597Z,66.96
2023-06-04T04:42:15.766Z,67.15
2023-06-04T04:43:17.572Z,67.17
2023-06-04T04:44:19.406Z,66.89
2023-06-04T04:45:22.221Z,66.84
2023-06-04T04:46:23.992Z,67.45
2023-06-04T04:47:25.898Z,67.24
2023-06-04T04:48:27.692Z,66.97
2023-06-04T04:49:29.602Z,66.69
2023-06-04T04:50:32.732Z,66.08
2023-06-04T04:51:34.630Z,66.30
2023-06-04T04:52:36.550Z,66.82
2023-06-04T04:53:38.363Z,66.90
2023-06-04T04:54:40.160Z,68.26
2023-06-04T04:55:42.084Z,68.18
2023-06-04T04:56:43.819Z,67.98
2023-06-04T04:57:45.550Z,67.37
2023-06-04T04:58:47.477Z,66.71
2023-06-04T04:59:49.442Z,65.92
2023-06-04T05:00:51.205Z,66.06
2023-06-04T05:01:53.105Z,66.51
2023-06-04T05:02:54.962Z,65.95
2023-06-04T05:03:56.825Z,65.85
2023-06-04T05:04:58.581Z,65.86
2023-06-04T05:06:00.344Z,66.14
2023-06-04T05:07:02.161Z,65.99
2023-06-04T05:08:03.986Z,66.30
2023-06-04T05:09:05.767Z,66.05
2023-06-04T05:10:08.370Z,67.13
2023-06-04T05:11:10.659Z,67.02
2023-06-04T05:12:12.515Z,66.95
2023-06-04T05:13:14.344Z,66.30
2023-06-04T05:14:16.381Z,66.29
2023-06-04T05:15:19.671Z,66.13
2023-06-04T05:16:23.927Z,65.60
2023-06-04T05:17:33.613Z,65.28
2023-06-04T05:18:35.922Z,65.32
2023-06-04T05:19:38.466Z,64.96
2023-06-04T05:20:40.288Z,64.87
2023-06-04T05:21:42.222Z,64.88
2023-06-04T05:22:45.176Z,64.55
2023-06-04T05:23:49.965Z,64.41
2023-06-04T05:24:53.065Z,64.41
2023-06-04T05:25:55.924Z,64.37
2023-06-04T05:26:58.524Z,65.15
2023-06-04T05:28:00.202Z,65.74
2023-06-04T05:29:02.757Z,65.98
2023-06-04T05:30:05.180Z,65.34
2023-06-04T05:31:10.181Z,65.20
2023-06-04T05:32:12.469Z,65.04
2023-06-04T05:33:19.520Z,65.73
2023-06-04T05:34:22.692Z,64.99
2023-06-04T05:35:24.432Z,64.80
2023-06-04T05:36:26.559Z,64.10
2023-06-04T05:37:28.438Z,64.04
2023-06-04T05:38:32.447Z,63.39
2023-06-04T05:39:34.404Z,63.30
2023-06-04T05:40:36.380Z,62.94
2023-06-04T05:41:38.290Z,62.92
2023-06-04T05:42:40.081Z,62.81
2023-06-04T05:43:41.935Z,62.86
2023-06-04T05:44:43.672Z,63.07
2023-06-04T05:45:45.636Z,62.72
2023-06-04T05:46:47.477Z,62.69
2023-06-04T05:47:49.382Z,62.28
2023-06-04T05:48:52.518Z,62.10
2023-06-04T05:49:54.233Z,62.13
2023-06-04T05:50:56.057Z,62.12
2023-06-04T05:51:57.735Z,62.36
2023-06-04T05:52:59.518Z,63.22
2023-06-04T05:54:01.499Z,63.40
2023-06-04T05:55:03.726Z,63.41
2023-06-04T05:56:05.630Z,63.72
2023-06-04T05:57:07.514Z,64.12
2023-06-04T05:58:09.241Z,63.75
2023-06-04T05:59:11.051Z,63.75
2023-06-04T06:00:13.807Z,63.94
2023-06-04T06:01:16.504Z,63.49
2023-06-04T06:02:18.453Z,63.34
2023-06-04T06:03:20.627Z,63.17
2023-06-04T06:04:22.667Z,62.89
2023-06-04T06:05:24.664Z,62.71
2023-06-04T06:06:26.644Z,63.24
2023-06-04T06:07:28.565Z,63.11
2023-06-04T06:08:30.325Z,62.99
2023-06-04T06:09:32.147Z,62.81
2023-06-04T06:10:33.980Z,62.55
2023-06-04T06:11:35.820Z,62.68
2023-06-04T06:12:37.547Z,62.58
2023-06-04T06:13:39.450Z,62.66
2023-06-04T06:14:41.320Z,62.54
2023-06-04T06:15:43.411Z,62.58
2023-06-04T06:16:45.360Z,62.72
2023-06-04T06:17:47.193Z,62.58
2023-06-04T06:18:49.431Z,62.67
2023-06-04T06:19:51.167Z,63.23
2023-06-04T06:20:52.939Z,63.13
2023-06-04T06:21:54.677Z,63.51
2023-06-04T06:22:56.554Z,62.97
2023-06-04T06:23:58.275Z,63.67
2023-06-04T06:25:00.303Z,63.44
2023-06-04T06:26:03.231Z,63.62
2023-06-04T06:27:06.549Z,64.12
2023-06-04T06:28:08.738Z,64.63
2023-06-04T06:29:10.633Z,63.94
2023-06-04T06:30:13.438Z,63.33
2023-06-04T06:31:16.367Z,63.70
2023-06-04T06:32:18.268Z,63.36
2023-06-04T06:33:22.920Z,63.04
2023-06-04T06:34:24.815Z,62.71
2023-06-04T06:35:26.624Z,62.64
2023-06-04T06:36:29.914Z,62.71
2023-06-04T06:37:31.743Z,62.59
2023-06-04T06:38:33.549Z,62.51
2023-06-04T06:39:35.290Z,62.54
2023-06-04T06:40:37.086Z,62.42
2023-06-04T06:41:39.909Z,62.36
2023-06-04T06:42:41.718Z,63.54
2023-06-04T06:43:43.438Z,63.43
2023-06-04T06:44:45.758Z,63.59
2023-06-04T06:45:47.568Z,63.73
2023-06-04T06:46:50.119Z,63.70
2023-06-04T06:47:52.051Z,63.24
2023-06-04T06:48:53.835Z,62.69
2023-06-04T06:49:56.291Z,62.54
2023-06-04T06:50:58.430Z,62.65
2023-06-04T06:52:00.207Z,62.59
2023-06-04T06:53:04.432Z,62.75
2023-06-04T06:54:09.848Z,63.25
2023-06-04T06:55:11.725Z,62.78
2023-06-04T06:56:15.219Z,62.77
2023-06-04T06:57:18.350Z,62.64
2023-06-04T06:58:20.921Z,63.02
2023-06-04T06:59:22.912Z,63.26
2023-06-04T07:00:25.456Z,62.52
2023-06-04T07:01:28.099Z,62.76
2023-06-04T07:02:30.470Z,62.42
2023-06-04T07:03:32.605Z,62.59
2023-06-04T07:04:34.383Z,62.08
2023-06-04T07:05:36.393Z,62.21
2023-06-04T07:06:38.546Z,62.57
2023-06-04T07:07:40.384Z,62.81
2023-06-04T07:08:43.546Z,62.92
2023-06-04T07:09:45.282Z,62.73
2023-06-04T07:10:47.377Z,62.74
2023-06-04T07:11:49.151Z,62.40
2023-06-04T07:12:50.985Z,62.43
2023-06-04T07:13:53.034Z,62.17
2023-06-04T07:14:54.869Z,62.72
2023-06-04T07:15:57.044Z,63.05
2023-06-04T07:16:59.071Z,62.64
2023-06-04T07:18:00.944Z,62.79
2023-06-04T07:19:03.485Z,62.73
2023-06-04T07:20:08.105Z,63.08
2023-06-04T07:21:10.044Z,62.47
2023-06-04T07:22:11.931Z,61.58
2023-06-04T07:23:13.708Z,61.35
2023-06-04T07:24:15.477Z,61.61
2023-06-04T07:25:17.482Z,61.17
2023-06-04T07:26:19.391Z,60.62
2023-06-04T07:27:23.398Z,60.20
2023-06-04T07:28:25.293Z,60.38
2023-06-04T07:29:27.146Z,62.24
2023-06-04T07:30:29.086Z,62.44
2023-06-04T07:31:31.033Z,61.75
2023-06-04T07:32:33.197Z,62.21
2023-06-04T07:33:35.174Z,61.63
2023-06-04T07:34:38.365Z,61.52
2023-06-04T07:35:40.105Z,61.24
2023-06-04T07:36:41.952Z,60.70
2023-06-04T07:37:46.313Z,60.70
2023-06-04T07:38:48.068Z,60.49
2023-06-04T07:39:50.250Z,61.29
2023-06-04T07:40:52.138Z,62.63
2023-06-04T07:41:55.290Z,62.40
2023-06-04T07:42:57.028Z,62.60
2023-06-04T07:43:59.137Z,61.75
2023-06-04T07:45:00.863Z,61.32
2023-06-04T07:46:03.408Z,61.50
2023-06-04T07:47:05.395Z,61.18
2023-06-04T07:48:07.344Z,60.70
2023-06-04T07:49:10.017Z,60.19
2023-06-04T07:50:12.238Z,60.47
2023-06-04T07:51:14.857Z,60.10
2023-06-04T07:52:16.738Z,60.22
2023-06-04T07:53:18.444Z,60.36
2023-06-04T07:54:20.311Z,59.84
2023-06-04T07:55:22.081Z,59.77
2023-06-04T07:56:24.207Z,60.04
2023-06-04T07:57:26.257Z,60.08
2023-06-04T07:58:28.104Z,59.56
2023-06-04T07:59:30.916Z,59.77
2023-06-04T08:00:32.668Z,59.84
2023-06-04T08:01:34.424Z,60.27
2023-06-04T08:02:36.227Z,60.00
2023-06-04T08:03:43.338Z,60.05
2023-06-04T08:04:48.747Z,59.63
2023-06-04T08:05:50.843Z,59.84
2023-06-04T08:06:53.096Z,59.88
2023-06-04T08:07:55.236Z,60.01
2023-06-04T08:08:57.010Z,59.96
2023-06-04T08:09:58.849Z,59.71
2023-06-04T08:11:00.970Z,59.91
2023-06-04T08:12:02.802Z,59.72
2023-06-04T08:13:05.058Z,59.55
2023-06-04T08:14:06.835Z,59.31
2023-06-04T08:15:09.358Z,59.50
2023-06-04T08:16:11.600Z,59.49
2023-06-04T08:17:13.497Z,59.43
2023-06-04T08:18:18.500Z,59.06
2023-06-04T08:19:20.441Z,58.37
2023-06-04T08:20:22.473Z,58.47
2023-06-04T08:21:28.560Z,58.43
2023-06-04T08:22:30.474Z,58.67
2023-06-04T08:23:32.257Z,58.45
2023-06-04T08:24:34.129Z,57.90
2023-06-04T08:25:35.944Z,58.18
2023-06-04T08:26:37.747Z,58.63
2023-06-04T08:27:39.484Z,58.74
2023-06-04T08:28:41.310Z,57.88
2023-06-04T08:29:43.024Z,57.57
2023-06-04T08:30:44.869Z,57.83
2023-06-04T08:31:47.164Z,58.09
2023-06-04T08:32:50.010Z,58.07
2023-06-04T08:33:52.025Z,57.59
2023-06-04T08:34:53.877Z,58.22
2023-06-04T08:35:55.650Z,58.03
2023-06-04T08:36:58.496Z,58.09
2023-06-04T08:38:00.777Z,57.79
2023-06-04T08:39:02.675Z,57.78
2023-06-04T08:40:06.401Z,57.90
2023-06-04T08:41:15.301Z,57.30
2023-06-04T08:42:21.444Z,57.10
2023-06-04T08:43:23.347Z,56.79
2023-06-04T08:44:25.114Z,56.71
2023-06-04T08:45:27.776Z,56.59
2023-06-04T08:46:32.993Z,56.88
2023-06-04T08:47:35.889Z,57.36
2023-06-04T08:48:38.916Z,57.02
2023-06-04T08:49:42.293Z,56.49
2023-06-04T08:50:46.538Z,56.20
2023-06-04T08:51:48.839Z,56.82
2023-06-04T08:52:55.132Z,57.16
2023-06-04T08:53:58.756Z,57.06
2023-06-04T08:55:00.660Z,56.91
2023-06-04T08:56:02.533Z,56.72
2023-06-04T08:57:04.901Z,57.07
2023-06-04T08:58:09.616Z,58.82
2023-06-04T08:59:12.381Z,57.73
2023-06-04T09:00:14.998Z,58.36
2023-06-04T09:01:17.627Z,58.38
2023-06-04T09:02:19.567Z,56.90
2023-06-04T09:03:21.997Z,57.16
2023-06-04T09:04:24.120Z,57.38
2023-06-04T09:05:26.280Z,57.67
2023-06-04T09:06:28.103Z,57.78
2023-06-04T09:07:30.712Z,57.70
2023-06-04T09:08:33.188Z,57.25
2023-06-04T09:09:48.749Z,57.13
2023-06-04T09:10:56.631Z,57.05
2023-06-04T09:11:58.677Z,56.75
2023-06-04T09:13:02.776Z,56.32
2023-06-04T09:14:08.057Z,56.71
2023-06-04T09:15:09.943Z,55.89
2023-06-04T09:16:11.898Z,56.67
2023-06-04T09:17:13.760Z,56.62
2023-06-04T09:18:16.010Z,56.61
2023-06-04T09:19:18.640Z,55.79
2023-06-04T09:20:21.355Z,56.73
2023-06-04T09:21:23.254Z,55.90
2023-06-04T09:22:35.161Z,55.82
2023-06-04T09:23:38.816Z,56.18
2023-06-04T09:24:41.785Z,55.86
2023-06-04T09:25:44.984Z,55.37
2023-06-04T09:26:47.515Z,55.75
2023-06-04T09:27:50.379Z,56.00
2023-06-04T09:28:54.474Z,55.53
2023-06-04T09:30:00.648Z,55.54
2023-06-04T09:31:04.076Z,55.61
2023-06-04T09:32:05.980Z,55.97
2023-06-04T09:33:08.852Z,55.74
2023-06-04T09:34:11.194Z,55.52
2023-06-04T09:35:17.438Z,55.34
2023-06-04T09:36:19.561Z,55.55
2023-06-04T09:37:23.535Z,54.81
2023-06-04T09:38:34.037Z,55.01
2023-06-04T09:39:35.856Z,55.70
2023-06-04T09:40:38.845Z,55.24
2023-06-04T09:41:41.170Z,55.10
2023-06-04T09:42:44.110Z,55.61
2023-06-04T09:43:45.943Z,55.86
2023-06-04T09:44:47.710Z,56.14
2023-06-04T09:45:49.656Z,56.10
2023-06-04T09:46:56.024Z,56.28
2023-06-04T09:47:58.038Z,54.86
2023-06-04T09:49:04.080Z,55.65
2023-06-04T09:50:06.529Z,54.85
2023-06-04T09:51:16.819Z,55.22
2023-06-04T09:52:18.859Z,55.07
2023-06-04T09:53:29.730Z,54.91
2023-06-04T09:54:37.725Z,54.82
2023-06-04T09:55:39.560Z,53.95
2023-06-04T09:56:42.316Z,53.77
2023-06-04T09:57:45.973Z,54.74
2023-06-04T09:58:49.886Z,54.04
2023-06-04T09:59:51.607Z,54.37
2023-06-04T10:00:55.257Z,54.24
2023-06-04T10:01:57.236Z,54.56
2023-06-04T10:03:02.568Z,53.91
2023-06-04T10:04:05.238Z,53.49
2023-06-04T10:05:10.362Z,54.15
2023-06-04T10:06:16.073Z,54.27
2023-06-04T10:07:18.504Z,54.12
2023-06-04T10:08:23.013Z,54.11
2023-06-04T10:09:27.420Z,53.97
2023-06-04T10:10:29.909Z,54.32
2023-06-04T10:11:34.541Z,54.31
2023-06-04T10:12:38.402Z,54.64
2023-06-04T10:13:44.816Z,52.88
2023-06-04T10:14:55.779Z,53.10
2023-06-04T10:16:00.153Z,54.05
2023-06-04T10:17:02.503Z,54.16
2023-06-04T10:18:05.266Z,54.29
2023-06-04T10:19:08.439Z,54.22
2023-06-04T10:20:11.915Z,54.31
2023-06-04T10:21:17.718Z,53.64
2023-06-04T10:22:20.786Z,53.90
2023-06-04T10:23:23.652Z,53.83
2023-06-04T10:24:27.894Z,53.91
2023-06-04T10:25:30.013Z,53.89
2023-06-04T10:26:33.930Z,53.07
2023-06-04T10:27:36.658Z,53.73
2023-06-04T10:28:38.394Z,54.50
2023-06-04T10:29:41.014Z,54.63
2023-06-04T10:30:42.737Z,54.39
2023-06-04T10:31:45.339Z,54.21
2023-06-04T10:32:48.154Z,54.57
2023-06-04T10:33:54.705Z,54.70
2023-06-04T10:34:58.660Z,53.49
2023-06-04T10:36:16.582Z,54.83
2023-06-04T10:37:22.715Z,55.15
2023-06-04T10:38:25.310Z,55.44
2023-06-04T10:39:30.921Z,55.13
2023-06-04T10:40:36.126Z,54.82
2023-06-04T10:41:38.368Z,55.48
2023-06-04T10:42:42.350Z,54.90
2023-06-04T10:43:47.823Z,55.13
2023-06-04T10:44:51.167Z,55.05
2023-06-04T10:45:52.921Z,55.13
2023-06-04T10:46:54.797Z,55.86
2023-06-04T10:48:03.529Z,55.92
2023-06-04T10:49:05.364Z,55.05
2023-06-04T10:50:13.902Z,55.48
2023-06-04T10:51:16.308Z,55.82
2023-06-04T10:52:18.506Z,55.45
2023-06-04T10:53:21.380Z,55.67
2023-06-04T10:54:25.546Z,55.28
2023-06-04T10:55:27.381Z,55.06
2023-06-04T10:56:30.247Z,54.82
2023-06-04T10:57:33.254Z,55.23
2023-06-04T10:58:35.398Z,55.57
2023-06-04T10:59:37.292Z,55.51
2023-06-04T11:00:39.811Z,55.09
2023-06-04T11:01:41.685Z,55.29
2023-06-04T11:02:53.600Z,54.79
2023-06-04T11:03:56.696Z,54.47
2023-06-04T11:05:07.098Z,54.44
2023-06-04T11:06:18.489Z,54.85
2023-06-04T11:07:21.060Z,55.21
2023-06-04T11:08:30.017Z,54.97
2023-06-04T11:09:34.482Z,53.91
2023-06-04T11:10:38.031Z,54.05
2023-06-04T11:11:39.868Z,53.90
2023-06-04T11:12:46.048Z,54.76
2023-06-04T11:13:48.152Z,54.83
2023-06-04T11:15:00.280Z,54.00
2023-06-04T11:16:02.076Z,54.51
2023-06-04T11:17:11.082Z,54.55
2023-06-04T11:18:16.759Z,54.20
2023-06-04T11:19:21.755Z,54.52
2023-06-04T11:20:24.505Z,54.62
2023-06-04T11:21:28.015Z,53.95
2023-06-04T11:22:30.088Z,53.66
2023-06-04T11:23:31.971Z,53.92
2023-06-04T11:24:33.963Z,54.24
2023-06-04T11:25:36.370Z,54.05
2023-06-04T11:26:41.086Z,52.74
2023-06-04T11:27:46.584Z,53.45
2023-06-04T11:28:51.412Z,53.57
2023-06-04T11:29:53.896Z,54.16
2023-06-04T11:31:07.523Z,53.70
2023-06-04T11:32:09.462Z,54.42
2023-06-04T11:33:11.265Z,54.57
2023-06-04T11:34:33.390Z,54.15
2023-06-04T11:35:43.090Z,54.44
2023-06-04T11:36:44.854Z,54.36
2023-06-04T11:37:56.577Z,54.31
2023-06-04T11:39:02.206Z,54.22
2023-06-04T11:40:07.954Z,53.72
2023-06-04T11:41:10.049Z,54.73
2023-06-04T11:42:12.215Z,54.87
2023-06-04T11:43:14.472Z,54.84
2023-06-04T11:44:19.319Z,55.22
2023-06-04T11:45:23.620Z,55.39
2023-06-04T11:46:25.815Z,54.92
2023-06-04T11:47:27.578Z,55.17
2023-06-04T11:48:30.510Z,55.51
2023-06-04T11:49:32.660Z,54.60
2023-06-04T11:50:34.761Z,55.07
2023-06-04T11:51:37.341Z,55.14
2023-06-04T11:52:39.318Z,55.09
2023-06-04T11:53:41.405Z,55.18
2023-06-04T11:54:43.191Z,55.49
2023-06-04T11:55:45.060Z,55.52
2023-06-04T11:56:47.802Z,55.25
2023-06-04T11:57:52.547Z,55.46
2023-06-04T11:58:55.923Z,55.60
2023-06-04T11:59:58.176Z,56.40
2023-06-04T12:01:01.281Z,56.38
2023-06-04T12:02:03.122Z,56.01
2023-06-04T12:03:05.121Z,55.95
2023-06-04T12:04:16.537Z,54.79
2023-06-04T12:05:22.035Z,55.07
2023-06-04T12:06:23.890Z,54.92
2023-06-04T12:07:25.848Z,55.22
2023-06-04T12:08:27.700Z,55.16
2023-06-04T12:09:30.631Z,55.47
2023-06-04T12:10:38.259Z,55.08
2023-06-04T12:11:42.816Z,55.13
2023-06-04T12:12:44.628Z,55.15
2023-06-04T12:13:46.488Z,55.35
2023-06-04T12:14:48.435Z,55.47
2023-06-04T12:15:55.950Z,55.88
2023-06-04T12:16:57.781Z,55.06
2023-06-04T12:17:59.807Z,54.99
2023-06-04T12:19:08.861Z,55.65
2023-06-04T12:20:10.811Z,55.69
2023-06-04T12:21:23.536Z,55.14
2023-06-04T12:22:26.254Z,55.41
2023-06-04T12:23:28.099Z,54.75
2023-06-04T12:24:30.752Z,53.21
2023-06-04T12:25:33.285Z,53.48
2023-06-04T12:26:39.098Z,53.41
2023-06-04T12:27:48.480Z,54.64
2023-06-04T12:28:59.664Z,53.68
2023-06-04T12:30:05.681Z,54.14
2023-06-04T12:31:17.161Z,53.34
2023-06-04T12:32:18.958Z,54.75
2023-06-04T12:33:20.822Z,54.18
2023-06-04T12:34:22.894Z,53.37
2023-06-04T12:35:24.734Z,53.64
2023-06-04T12:36:27.232Z,54.11
2023-06-04T12:37:29.654Z,52.82
2023-06-04T12:38:31.402Z,52.39
2023-06-04T12:39:38.430Z,51.51
2023-06-04T12:40:41.268Z,52.98
2023-06-04T12:41:46.189Z,51.95
2023-06-04T12:42:51.557Z,51.52
2023-06-04T12:43:53.727Z,50.68
2023-06-04T12:44:56.426Z,50.30
2023-06-04T12:45:58.373Z,50.91
2023-06-04T12:47:00.205Z,50.38
2023-06-04T12:48:01.933Z,50.44
2023-06-04T12:49:03.709Z,50.48
2023-06-04T12:50:05.702Z,49.64
2023-06-04T12:51:11.716Z,49.12
2023-06-04T12:52:15.462Z,48.95
2023-06-04T12:53:17.652Z,48.06
2023-06-04T12:54:19.457Z,48.18
2023-06-04T12:55:22.031Z,49.19
2023-06-04T12:56:23.913Z,47.89
2023-06-04T12:57:25.859Z,49.45
2023-06-04T12:58:27.654Z,48.51
2023-06-04T12:59:29.833Z,49.52
2023-06-04T13:00:31.716Z,50.25
2023-06-04T13:01:33.689Z,49.41
2023-06-04T13:02:35.579Z,50.12
2023-06-04T13:03:38.986Z,50.23
2023-06-04T13:04:42.956Z,49.60
2023-06-04T13:05:44.708Z,50.07
2023-06-04T13:06:49.221Z,48.98
2023-06-04T13:07:51.339Z,49.46
2023-06-04T13:08:53.205Z,50.30
2023-06-04T13:09:55.059Z,50.94
2023-06-04T13:10:57.188Z,50.64
2023-06-04T13:11:59.091Z,50.25
2023-06-04T13:13:01.004Z,50.53
2023-06-04T13:14:02.772Z,50.22
2023-06-04T13:15:04.779Z,49.50
2023-06-04T13:16:06.589Z,50.24
2023-06-04T13:17:21.210Z,50.18
2023-06-04T13:18:24.280Z,49.74
2023-06-04T13:19:27.805Z,50.59
2023-06-04T13:20:29.896Z,49.51
2023-06-04T13:21:31.576Z,49.94
2023-06-04T13:22:33.348Z,50.06
2023-06-04T13:23:49.433Z,50.19
2023-06-04T13:24:53.041Z,49.85
2023-06-04T13:25:54.818Z,50.41
2023-06-04T13:26:57.282Z,50.47
2023-06-04T13:27:59.087Z,50.17
2023-06-04T13:29:00.978Z,50.48
2023-06-04T13:30:02.897Z,50.63
2023-06-04T13:31:04.718Z,51.16
2023-06-04T13:32:06.628Z,50.67